createdAt,value
2023-02-11T00:02:31.302Z,102699.14
2023-02-11T00:05:41.727Z,102700.49
2023-02-11T00:09:09.891Z,102699.87
2023-02-11T00:12:37.790Z,102697.30
2023-02-11T00:16:06.168Z,102693.36
2023-02-11T00:19:33.967Z,102692.52
2023-02-11T00:22:49.746Z,102690.73
2023-02-11T00:26:18.036Z,102691.35
2023-02-11T00:29:45.784Z,102684.15
2023-02-11T00:33:13.865Z,102682.48
2023-02-11T00:36:41.529Z,102682.02
2023-02-11T00:39:31.337Z,102681.81
2023-02-11T00:42:59.254Z,102686.19
2023-02-11T00:46:27.196Z,102688.55
2023-02-11T00:49:54.877Z,102686.09
2023-02-11T00:53:22.936Z,102682.67
2023-02-11T00:56:50.709Z,102686.30
2023-02-11T01:00:00.630Z,102685.20
2023-02-11T01:03:28.516Z,102678.99
2023-02-11T01:06:56.724Z,102673.68
2023-02-11T01:10:24.554Z,102677.34
2023-02-11T01:13:52.533Z,102678.55
2023-02-11T01:17:20.354Z,102678.35
2023-02-11T01:20:48.091Z,102680.22
2023-02-11T01:24:15.852Z,102675.80
2023-02-11T01:27:24.454Z,102669.80
2023-02-11T01:30:52.619Z,102663.45
2023-02-11T01:34:20.282Z,102664.71
2023-02-11T01:37:48.237Z,102653.27
2023-02-11T01:40:36.477Z,102647.23
2023-02-11T01:43:44.992Z,102642.98
2023-02-11T01:47:14.265Z,102634.64
2023-02-11T01:50:22.660Z,102632.51
2023-02-11T01:53:50.305Z,102629.98
2023-02-11T01:57:18.345Z,102618.48
2023-02-11T02:00:46.172Z,102617.01
2023-02-11T02:04:13.933Z,102616.20
2023-02-11T02:07:41.610Z,102614.22
2023-02-11T02:11:09.838Z,102613.84
2023-02-11T02:14:37.604Z,102611.00
2023-02-11T02:18:05.476Z,102601.23
2023-02-11T02:21:33.655Z,102596.70
2023-02-11T02:25:01.733Z,102602.59
2023-02-11T02:28:29.509Z,102601.83
2023-02-11T02:31:57.375Z,102599.67
2023-02-11T02:35:25.173Z,102597.94
2023-02-11T02:38:33.973Z,102595.07
2023-02-11T02:42:02.469Z,102590.98
2023-02-11T02:45:30.239Z,102585.84
2023-02-11T02:48:58.389Z,102577.76
2023-02-11T02:52:26.155Z,102588.15
2023-02-11T02:55:35.799Z,102585.80
2023-02-11T02:58:46.983Z,102584.01
2023-02-11T03:02:12.012Z,102579.38
2023-02-11T03:05:40.051Z,102574.06
2023-02-11T03:08:29.530Z,102575.23
2023-02-11T03:11:57.222Z,102581.73
2023-02-11T03:15:05.357Z,102583.52
2023-02-11T03:18:33.478Z,102582.42
2023-02-11T03:22:01.267Z,102580.08
2023-02-11T03:25:29.182Z,102576.75
2023-02-11T03:28:56.975Z,102571.08
2023-02-11T03:32:25.002Z,102571.90
2023-02-11T03:35:52.802Z,102573.84
2023-02-11T03:39:20.897Z,102569.06
2023-02-11T03:42:48.631Z,102564.72
2023-02-11T03:46:16.763Z,102563.69
2023-02-11T03:49:44.898Z,102565.69
2023-02-11T03:53:13.069Z,102572.91
2023-02-11T03:56:41.174Z,102573.20
2023-02-11T04:00:09.048Z,102568.80
2023-02-11T04:03:17.990Z,102563.44
2023-02-11T04:06:45.855Z,102562.73
2023-02-11T04:10:13.526Z,102556.91
2023-02-11T04:13:41.307Z,102560.96
2023-02-11T04:17:09.735Z,102559.57
2023-02-11T04:20:37.549Z,102557.80
2023-02-11T04:24:05.364Z,102558.92
2023-02-11T04:27:33.196Z,102561.62
2023-02-11T04:31:00.861Z,102555.14
2023-02-11T04:34:28.542Z,102553.42
2023-02-11T04:37:56.512Z,102547.70
2023-02-11T04:41:24.393Z,102538.23
2023-02-11T04:44:52.152Z,102540.97
2023-02-11T04:48:19.920Z,102548.28
2023-02-11T04:51:28.368Z,102546.35
2023-02-11T04:54:56.288Z,102546.57
2023-02-11T04:58:24.115Z,102547.34
2023-02-11T05:01:52.602Z,102552.20
2023-02-11T05:05:20.443Z,102553.40
2023-02-11T05:08:48.237Z,102556.41
2023-02-11T05:12:16.073Z,102562.17
2023-02-11T05:15:43.707Z,102559.89
2023-02-11T05:19:11.536Z,102561.89
2023-02-11T05:22:39.206Z,102564.90
2023-02-11T05:26:07.090Z,102561.02
2023-02-11T05:29:35.074Z,102558.59
2023-02-11T05:33:02.936Z,102559.02
2023-02-11T05:36:33.324Z,102560.38
2023-02-11T05:39:58.679Z,102557.40
2023-02-11T05:43:26.280Z,102562.27
2023-02-11T05:46:54.295Z,102557.42
2023-02-11T05:50:22.809Z,102554.08
2023-02-11T05:53:50.987Z,102551.98
2023-02-11T05:57:18.768Z,102548.27
2023-02-11T06:00:46.752Z,102547.50
2023-02-11T06:04:14.613Z,102550.29
2023-02-11T06:07:42.493Z,102549.00
2023-02-11T06:11:11.350Z,102549.43
2023-02-11T06:14:39.260Z,102552.04
2023-02-11T06:18:07.034Z,102553.49
2023-02-11T06:21:43.287Z,102552.13
2023-02-11T06:25:02.912Z,102556.19
2023-02-11T06:28:11.846Z,102551.40
2023-02-11T06:31:40.053Z,102548.22
2023-02-11T06:35:09.991Z,102546.02
2023-02-11T06:38:35.374Z,102543.00
2023-02-11T06:42:03.208Z,102532.96
2023-02-11T06:45:31.183Z,102539.44
2023-02-11T06:48:59.244Z,102540.23
2023-02-11T06:52:27.663Z,102543.27
2023-02-11T06:55:35.552Z,102541.97
2023-02-11T06:59:03.324Z,102543.79
2023-02-11T07:02:31.308Z,102547.39
2023-02-11T07:05:59.049Z,102547.37
2023-02-11T07:09:26.741Z,102539.65
2023-02-11T07:12:56.481Z,102541.57
2023-02-11T07:16:23.106Z,102545.27
2023-02-11T07:19:51.285Z,102539.07
2023-02-11T07:23:19.162Z,102539.42
2023-02-11T07:26:47.008Z,102533.02
2023-02-11T07:30:15.134Z,102534.64
2023-02-11T07:33:43.007Z,102532.53
2023-02-11T07:37:11.472Z,102525.36
2023-02-11T07:40:39.367Z,102527.66
2023-02-11T07:44:07.491Z,102529.56
2023-02-11T07:47:16.352Z,102531.70
2023-02-11T07:50:44.691Z,102536.85
2023-02-11T07:54:12.506Z,102539.45
2023-02-11T07:57:40.282Z,102538.21
2023-02-11T08:01:08.123Z,102534.08
2023-02-11T08:03:56.381Z,102535.27
2023-02-11T08:07:24.703Z,102529.09
2023-02-11T08:10:52.907Z,102526.02
2023-02-11T08:14:20.726Z,102527.71
2023-02-11T08:17:29.287Z,102528.19
2023-02-11T08:20:38.545Z,102529.10
2023-02-11T08:24:06.448Z,102524.11
2023-02-11T08:27:34.465Z,102521.89
2023-02-11T08:31:02.288Z,102516.98
2023-02-11T08:34:11.859Z,102515.10
2023-02-11T08:37:20.384Z,102519.88
2023-02-11T08:40:48.213Z,102513.90
2023-02-11T08:44:16.581Z,102506.85
2023-02-11T08:47:44.361Z,102503.30
2023-02-11T08:51:12.424Z,102500.48
2023-02-11T08:54:40.461Z,102497.31
2023-02-11T08:57:49.163Z,102494.99
2023-02-11T09:01:17.529Z,102492.67
2023-02-11T09:04:45.682Z,102487.00
2023-02-11T09:08:13.528Z,102482.89
2023-02-11T09:11:41.341Z,102484.09
2023-02-11T09:15:09.190Z,102482.24
2023-02-11T09:18:36.881Z,102490.40
2023-02-11T09:22:04.819Z,102485.54
2023-02-11T09:25:32.648Z,102490.45
2023-02-11T09:29:00.681Z,102483.65
2023-02-11T09:32:28.490Z,102474.83
2023-02-11T09:35:56.208Z,102467.30
2023-02-11T09:39:23.982Z,102463.03
2023-02-11T09:42:52.088Z,102462.42
2023-02-11T09:46:19.871Z,102463.09
2023-02-11T09:49:47.565Z,102466.70
2023-02-11T09:52:56.687Z,102458.43
2023-02-11T09:56:24.584Z,102458.69
2023-02-11T09:59:52.496Z,102457.54
2023-02-11T10:03:00.471Z,102455.00
2023-02-11T10:06:12.333Z,102449.89
2023-02-11T10:09:40.112Z,102444.40
2023-02-11T10:12:28.268Z,102440.58
2023-02-11T10:15:56.155Z,102442.45
2023-02-11T10:19:24.165Z,102442.42
2023-02-11T10:22:33.147Z,102428.61
2023-02-11T10:26:01.200Z,102427.21
2023-02-11T10:29:09.679Z,102418.13
2023-02-11T10:32:37.574Z,102419.98
2023-02-11T10:36:05.593Z,102417.98
2023-02-11T10:39:33.722Z,102405.88
2023-02-11T10:43:01.395Z,102399.91
2023-02-11T10:46:29.510Z,102392.52
2023-02-11T10:49:57.611Z,102389.85
2023-02-11T10:53:25.673Z,102382.30
2023-02-11T10:56:53.522Z,102372.19
2023-02-11T11:00:21.318Z,102365.58
2023-02-11T11:03:49.451Z,102364.29
2023-02-11T11:07:17.369Z,102353.33
2023-02-11T11:10:45.229Z,102348.42
2023-02-11T11:14:13.012Z,102340.30
2023-02-11T11:17:41.258Z,102338.54
2023-02-11T11:21:08.945Z,102335.07
2023-02-11T11:24:36.962Z,102323.95
2023-02-11T11:27:25.957Z,102325.72
2023-02-11T11:30:54.523Z,102320.66
2023-02-11T11:34:21.939Z,102316.45
2023-02-11T11:37:49.854Z,102310.63
2023-02-11T11:41:18.039Z,102312.80
2023-02-11T11:44:46.922Z,102303.59
2023-02-11T11:47:58.702Z,102303.84
2023-02-11T11:51:26.868Z,102295.21
2023-02-11T11:54:36.795Z,102288.46
2023-02-11T11:58:04.691Z,102281.23
2023-02-11T12:01:16.313Z,102282.55
2023-02-11T12:04:26.689Z,102278.35
2023-02-11T12:07:35.772Z,102275.86
2023-02-11T12:11:03.574Z,102269.23
2023-02-11T12:14:31.259Z,102267.88
2023-02-11T12:17:59.436Z,102265.44
2023-02-11T12:21:02.879Z,102257.40
2023-02-11T12:24:30.812Z,102256.36
2023-02-11T12:27:58.548Z,102246.59
2023-02-11T12:31:26.440Z,102243.88
2023-02-11T12:34:54.488Z,102235.11
2023-02-11T12:38:22.594Z,102234.03
2023-02-11T12:41:50.670Z,102225.59
2023-02-11T12:45:18.457Z,102216.95
2023-02-11T12:48:46.672Z,102212.39
2023-02-11T12:52:14.764Z,102211.58
2023-02-11T12:55:42.600Z,102204.94
2023-02-11T12:58:47.868Z,102198.95
2023-02-11T13:01:56.474Z,102196.23
2023-02-11T13:05:06.487Z,102201.70
2023-02-11T13:08:34.440Z,102203.51
2023-02-11T13:11:46.105Z,102198.77
2023-02-11T13:14:55.705Z,102191.66
2023-02-11T13:18:23.472Z,102188.90
2023-02-11T13:21:51.682Z,102178.37
2023-02-11T13:25:19.557Z,102175.98
2023-02-11T13:28:47.348Z,102176.10
2023-02-11T13:32:15.668Z,102156.95
2023-02-11T13:35:43.592Z,102149.45
2023-02-11T13:39:11.400Z,102152.53
2023-02-11T13:42:39.477Z,102146.08
2023-02-11T13:46:07.651Z,102141.21
2023-02-11T13:49:36.256Z,102139.52
2023-02-11T13:52:24.500Z,102137.04
2023-02-11T13:55:15.496Z,102132.48
2023-02-11T13:58:14.480Z,102132.13
2023-02-11T14:01:06.203Z,102131.22
2023-02-11T14:03:54.881Z,102122.48
2023-02-11T14:07:22.723Z,102112.92
2023-02-11T14:10:50.950Z,102104.17
2023-02-11T14:13:48.726Z,102102.54
2023-02-11T14:16:44.580Z,102097.55
2023-02-11T14:20:22.984Z,102099.95
2023-02-11T14:23:51.974Z,102099.84
2023-02-11T14:27:20.225Z,102105.48
2023-02-11T14:30:49.266Z,102106.75
2023-02-11T14:34:17.259Z,102104.08
2023-02-11T14:37:46.247Z,102087.58
2023-02-11T14:40:56.973Z,102082.21
2023-02-11T14:44:04.913Z,102077.13
2023-02-11T14:47:32.846Z,102083.52
2023-02-11T14:51:01.046Z,102076.46
2023-02-11T14:54:28.763Z,102073.66
2023-02-11T14:58:00.435Z,102070.19
2023-02-11T15:01:35.543Z,102066.27
2023-02-11T15:04:36.942Z,102063.05
2023-02-11T15:08:07.354Z,102063.11
2023-02-11T15:11:16.861Z,102066.94
2023-02-11T15:14:13.791Z,102060.63
2023-02-11T15:17:42.192Z,102060.71
2023-02-11T15:21:10.089Z,102055.38
2023-02-11T15:24:38.208Z,102055.05
2023-02-11T15:28:02.470Z,102052.61
2023-02-11T15:31:34.559Z,102057.59
2023-02-11T15:34:59.293Z,102059.55
2023-02-11T15:38:08.312Z,102057.91
2023-02-11T15:41:16.907Z,102066.14
2023-02-11T15:44:25.153Z,102065.77
2023-02-11T15:47:53.325Z,102075.30
2023-02-11T15:51:02.174Z,102075.81
2023-02-11T15:54:10.997Z,102066.06
2023-02-11T15:57:38.839Z,102056.48
2023-02-11T16:00:55.191Z,102056.39
2023-02-11T16:04:24.514Z,102054.09
2023-02-11T16:07:55.345Z,102059.68
2023-02-11T16:11:28.841Z,102059.23
2023-02-11T16:14:56.650Z,102061.42
2023-02-11T16:18:12.748Z,102062.13
2023-02-11T16:21:24.534Z,102062.82
2023-02-11T16:24:33.714Z,102061.41
2023-02-11T16:27:42.661Z,102058.92
2023-02-11T16:31:10.999Z,102053.96
2023-02-11T16:34:39.002Z,102045.55
2023-02-11T16:38:07.489Z,102047.95
2023-02-11T16:41:31.721Z,102040.45
2023-02-11T16:44:59.427Z,102041.45
2023-02-11T16:48:28.039Z,102039.74
2023-02-11T16:51:36.294Z,102048.16
2023-02-11T16:54:44.234Z,102056.42
2023-02-11T16:58:12.261Z,102061.90
2023-02-11T17:01:40.266Z,102066.06
2023-02-11T17:04:49.102Z,102059.00
2023-02-11T17:08:17.217Z,102063.17
2023-02-11T17:11:45.513Z,102065.40
2023-02-11T17:15:13.712Z,102058.93
2023-02-11T17:18:41.743Z,102041.77
2023-02-11T17:22:10.245Z,102030.13
2023-02-11T17:25:26.755Z,102027.38
2023-02-11T17:28:31.337Z,102016.68
2023-02-11T17:31:59.740Z,102020.58
2023-02-11T17:35:27.743Z,102024.83
2023-02-11T17:38:55.597Z,102022.92
2023-02-11T17:42:23.493Z,102023.56
2023-02-11T17:45:51.501Z,102023.61
2023-02-11T17:49:19.259Z,102023.10
2023-02-11T17:52:47.419Z,102016.39
2023-02-11T17:56:15.339Z,102012.90
2023-02-11T17:59:23.769Z,102007.42
2023-02-11T18:02:32.980Z,102002.67
2023-02-11T18:06:01.365Z,101998.20
2023-02-11T18:09:29.207Z,101995.67
2023-02-11T18:12:37.776Z,101996.52
2023-02-11T18:16:06.016Z,101995.76
2023-02-11T18:19:33.812Z,101998.88
2023-02-11T18:22:26.785Z,102002.20
2023-02-11T18:25:54.904Z,101999.13
2023-02-11T18:28:25.600Z,101998.78
2023-02-11T18:31:34.383Z,101993.59
2023-02-11T18:34:43.510Z,101997.84
2023-02-11T18:38:11.830Z,101991.59
2023-02-11T18:41:40.109Z,101998.42
2023-02-11T18:45:08.013Z,102002.25
2023-02-11T18:48:35.876Z,102000.46
2023-02-11T18:52:03.864Z,101995.05
2023-02-11T18:55:11.703Z,101986.28
2023-02-11T18:58:40.212Z,101983.41
2023-02-11T19:02:08.381Z,101986.22
2023-02-11T19:05:36.705Z,101981.70
2023-02-11T19:08:53.376Z,101987.98
2023-02-11T19:12:21.100Z,101993.66
2023-02-11T19:15:29.063Z,102000.05
2023-02-11T19:18:45.010Z,101989.11
2023-02-11T19:22:13.049Z,101986.77
2023-02-11T19:25:41.205Z,101989.24
2023-02-11T19:29:09.384Z,101989.27
2023-02-11T19:32:17.230Z,101993.59
2023-02-11T19:35:25.920Z,101993.58
2023-02-11T19:38:54.052Z,101982.88
2023-02-11T19:42:03.174Z,101978.38
2023-02-11T19:45:18.769Z,101977.45
2023-02-11T19:48:46.656Z,101977.64
2023-02-11T19:52:14.499Z,101983.91
2023-02-11T19:55:42.513Z,101977.76
2023-02-11T19:59:10.691Z,101985.10
2023-02-11T20:02:20.976Z,101979.55
2023-02-11T20:05:36.682Z,101971.67
2023-02-11T20:08:45.701Z,101965.48
2023-02-11T20:11:57.809Z,101963.36
2023-02-11T20:15:25.725Z,101953.27
2023-02-11T20:18:53.726Z,101952.86
2023-02-11T20:22:03.551Z,101950.61
2023-02-11T20:25:31.350Z,101955.21
2023-02-11T20:28:59.402Z,101951.73
2023-02-11T20:32:27.458Z,101945.92
2023-02-11T20:35:55.498Z,101926.91
2023-02-11T20:39:23.289Z,101922.70
2023-02-11T20:42:51.424Z,101923.56
2023-02-11T20:46:19.231Z,101931.58
2023-02-11T20:49:47.492Z,101926.64
2023-02-11T20:53:15.957Z,101925.48
2023-02-11T20:56:46.773Z,101912.39
2023-02-11T21:00:12.516Z,101906.98
2023-02-11T21:03:20.492Z,101908.79
2023-02-11T21:06:32.218Z,101907.58
2023-02-11T21:10:00.549Z,101905.69
2023-02-11T21:13:28.530Z,101900.06
2023-02-11T21:16:56.920Z,101900.91
2023-02-11T21:20:05.803Z,101905.60
2023-02-11T21:23:34.131Z,101903.83
2023-02-11T21:27:02.349Z,101899.65
2023-02-11T21:30:14.089Z,101895.21
2023-02-11T21:33:42.090Z,101891.36
2023-02-11T21:36:50.913Z,101890.53
2023-02-11T21:40:20.443Z,101879.98
2023-02-11T21:43:27.736Z,101876.20
2023-02-11T21:46:18.071Z,101872.50
2023-02-11T21:49:46.244Z,101875.79
2023-02-11T21:53:14.750Z,101874.67
2023-02-11T21:56:42.644Z,101874.02
2023-02-11T21:59:51.881Z,101879.79
2023-02-11T22:03:07.814Z,101877.33
2023-02-11T22:06:35.970Z,101877.52
2023-02-11T22:10:03.807Z,101880.45
2023-02-11T22:13:15.646Z,101879.15
2023-02-11T22:16:43.511Z,101872.94
2023-02-11T22:19:53.157Z,101869.54
2023-02-11T22:23:20.960Z,101866.36
2023-02-11T22:26:48.820Z,101868.89
2023-02-11T22:29:57.531Z,101875.59
2023-02-11T22:33:25.758Z,101872.46
2023-02-11T22:36:53.756Z,101870.88
2023-02-11T22:40:21.912Z,101860.28
2023-02-11T22:43:49.963Z,101868.38
2023-02-11T22:47:17.961Z,101865.98
2023-02-11T22:50:45.710Z,101867.11
2023-02-11T22:53:54.304Z,101863.75
2023-02-11T22:57:22.169Z,101855.47
2023-02-11T23:00:50.212Z,101854.63
2023-02-11T23:04:18.258Z,101846.53
2023-02-11T23:07:27.926Z,101834.38
2023-02-11T23:10:56.385Z,101822.17
2023-02-11T23:14:08.219Z,101823.98
2023-02-11T23:17:36.399Z,101827.22
2023-02-11T23:21:04.474Z,101819.84
2023-02-11T23:24:32.277Z,101823.13
2023-02-11T23:27:22.057Z,101830.77
2023-02-11T23:30:10.363Z,101832.13
2023-02-11T23:33:38.183Z,101828.23
2023-02-11T23:36:46.992Z,101825.04
2023-02-11T23:40:15.139Z,101813.03
2023-02-11T23:43:24.454Z,101806.69
2023-02-11T23:46:51.396Z,101806.33
2023-02-11T23:50:19.151Z,101804.57
2023-02-11T23:53:47.301Z,101802.16
2023-02-11T23:57:03.091Z,101794.13
